Terminal Aerodrome Forecast
Issued by NWS

Current Version | Previous Version | Text Only | Print | Product List | Glossary On
Versions: 1 2 3 4 5 6 7 8 9 10 11 12
000
FTUS41 KBTV 020500
TAFRUT
TAF
KRUT 020525Z 0206/0306 14006KT P6SM FEW050 SCT100 BKN200
     FM021500 17007KT P6SM VCSH SCT040 SCT150
     FM030000 14005KT P6SM SCT040 SCT100
      AMD LTD TO CLD VIS AND WIND=

USA.gov is the U.S. government's official web portal to all federal, state and local government web resources and services.